Time;durP1;ratioP1;P1;durP2;ratioP2;P2;SDS_P1;SDS_P2;PMS_P1;PMS_P2;Temp;Humidity;BMP_temperature;BMP_pressure;BME280_temperature;BME280_humidity;BME280_pressure;Samples;Min_cycle;Max_cycle;Signal;HPM_P1;HPM_P2
2022/08/30 00:01:21;;;;;;;1.35;1.25;;;22.30;99.90;;;;;;4970439;28;20034;-76
2022/08/30 00:03:47;;;;;;;2.50;1.60;;;22.20;99.90;;;;;;4981745;28;20037;-76
2022/08/30 00:06:14;;;;;;;1.40;1.23;;;22.30;99.90;;;;;;4989503;28;20034;-76
2022/08/30 00:08:41;;;;;;;0.45;0.45;;;22.20;99.90;;;;;;4990161;28;20449;-76
2022/08/30 00:11:11;;;;;;;0.75;0.73;;;22.20;99.90;;;;;;4989916;28;20029;-76
2022/08/30 00:13:41;;;;;;;2.88;1.45;;;22.20;99.90;;;;;;5008492;28;20133;-76
2022/08/30 00:16:08;;;;;;;2.53;1.33;;;22.20;99.90;;;;;;5007972;28;20032;-76
2022/08/30 00:18:34;;;;;;;1.38;1.27;;;22.20;99.90;;;;;;5007964;28;20120;-76
2022/08/30 00:21:00;;;;;;;1.20;1.13;;;22.10;99.90;;;;;;5009561;28;20072;-76
2022/08/30 00:23:26;;;;;;;0.93;0.90;;;22.10;99.90;;;;;;5007747;28;20423;-76
2022/08/30 00:25:54;;;;;;;0.93;0.90;;;22.10;99.90;;;;;;4989942;28;20042;-76
2022/08/30 00:28:20;;;;;;;3.05;2.30;;;22.10;99.90;;;;;;4988799;28;20486;-75
2022/08/30 00:30:46;;;;;;;1.88;1.20;;;22.10;99.90;;;;;;4989817;28;20051;-76
2022/08/30 00:33:13;;;;;;;1.85;1.67;;;22.10;99.90;;;;;;4990943;28;20034;-76
2022/08/30 00:35:40;;;;;;;0.65;0.65;;;22.10;99.90;;;;;;4989561;28;20053;-76
2022/08/30 00:38:07;;;;;;;2.03;1.83;;;22.10;99.90;;;;;;4989636;28;20742;-76
2022/08/30 00:40:32;;;;;;;;;;;22.00;99.90;;;;;;4990166;28;20135;-76
2022/08/30 00:43:01;;;;;;;3.72;2.30;;;22.00;99.90;;;;;;4998819;28;20050;-76
2022/08/30 00:45:30;;;;;;;1.58;1.48;;;22.00;99.90;;;;;;5008953;28;20030;-76
2022/08/30 00:47:59;;;;;;;0.63;0.63;;;22.00;99.90;;;;;;5005819;28;20026;-76
2022/08/30 00:50:29;;;;;;;1.45;0.93;;;22.00;99.90;;;;;;5009167;28;20034;-76
2022/08/30 00:52:58;;;;;;;1.00;0.93;;;22.00;99.90;;;;;;5007696;28;20038;-76
2022/08/30 00:55:25;;;;;;;1.35;1.23;;;21.90;99.90;;;;;;5008944;28;20034;-76
2022/08/30 00:57:55;;;;;;;0.73;0.73;;;21.90;99.90;;;;;;4996453;28;20418;-76
2022/08/30 01:00:21;;;;;;;0.82;0.82;;;21.80;99.90;;;;;;4988079;28;20065;-76
2022/08/30 01:02:47;;;;;;;0.63;0.63;;;21.80;99.90;;;;;;4989195;28;20034;-76
2022/08/30 01:05:14;;;;;;;1.55;1.45;;;21.80;99.90;;;;;;4991375;28;20027;-76
2022/08/30 01:07:43;;;;;;;0.88;0.85;;;21.70;99.90;;;;;;4987905;28;20428;-76
2022/08/30 01:10:12;;;;;;;1.10;1.02;;;21.60;99.90;;;;;;4989254;28;20377;-76
2022/08/30 01:12:38;;;;;;;1.50;1.38;;;21.60;99.90;;;;;;4996305;28;20125;-76
2022/08/30 01:15:05;;;;;;;0.73;0.73;;;21.60;99.90;;;;;;5008847;28;20030;-76
2022/08/30 01:17:33;;;;;;;1.38;1.13;;;21.60;99.90;;;;;;5007567;28;20044;-76
2022/08/30 01:20:03;;;;;;;0.73;0.73;;;21.50;99.90;;;;;;5006850;28;20038;-77
2022/08/30 01:22:41;;;;;;;0.85;0.85;;;21.50;99.90;;;;;;5008691;28;20397;-76
2022/08/30 01:25:07;;;;;;;;;;;21.50;99.90;;;;;;5008851;28;20105;-76
2022/08/30 01:27:37;;;;;;;2.13;1.23;;;21.50;99.90;;;;;;5002202;28;19914;-76
2022/08/30 01:30:04;;;;;;;1.45;1.35;;;21.50;99.90;;;;;;4987544;28;20416;-76
2022/08/30 01:32:30;;;;;;;0.50;0.50;;;21.40;99.90;;;;;;4988615;28;20144;-76
2022/08/30 01:34:56;;;;;;;0.97;0.97;;;21.40;99.90;;;;;;4988504;28;20038;-76
2022/08/30 01:37:28;;;;;;;2.05;1.95;;;21.40;99.90;;;;;;4989974;28;20030;-76
2022/08/30 01:39:54;;;;;;;0.95;0.80;;;21.30;99.90;;;;;;4988947;28;20044;-76
2022/08/30 01:42:21;;;;;;;1.67;1.58;;;21.30;99.90;;;;;;4990796;28;20085;-76
2022/08/30 01:44:47;;;;;;;0.75;0.75;;;21.20;99.90;;;;;;5007487;28;20084;-76
2022/08/30 01:47:14;;;;;;;1.30;1.20;;;21.30;99.90;;;;;;5008759;28;20446;-76
2022/08/30 01:49:40;;;;;;;0.60;0.60;;;21.30;99.90;;;;;;4997886;28;20115;-76
2022/08/30 01:52:07;;;;;;;3.45;2.38;;;21.20;99.90;;;;;;4988593;28;20128;-76
2022/08/30 01:54:35;;;;;;;1.02;0.98;;;21.20;99.90;;;;;;5004397;28;20045;-76
2022/08/30 01:57:01;;;;;;;3.03;1.02;;;21.20;99.90;;;;;;5008061;28;20460;-77
2022/08/30 01:59:27;;;;;;;1.00;1.00;;;21.20;99.90;;;;;;5006874;28;20045;-76
2022/08/30 02:01:53;;;;;;;0.87;0.67;;;21.10;99.90;;;;;;5006642;28;20393;-76
2022/08/30 02:04:19;;;;;;;0.95;0.93;;;21.10;99.90;;;;;;4997477;28;20494;-76
2022/08/30 02:06:45;;;;;;;2.27;1.13;;;20.90;99.90;;;;;;4988240;28;20102;-76
2022/08/30 02:09:12;;;;;;;4.93;1.80;;;20.90;99.90;;;;;;5008079;28;20041;-76
2022/08/30 02:11:38;;;;;;;1.55;1.30;;;20.90;99.90;;;;;;4991513;28;20026;-76
2022/08/30 02:14:05;;;;;;;0.45;0.45;;;21.00;99.90;;;;;;4988130;28;20023;-76
2022/08/30 02:16:31;;;;;;;1.10;1.05;;;20.90;99.90;;;;;;4988289;28;20034;-77
2022/08/30 02:18:56;;;;;;;2.00;1.87;;;20.90;99.90;;;;;;4988303;28;20359;-75
2022/08/30 02:21:23;;;;;;;4.30;2.13;;;20.90;99.90;;;;;;4989799;28;20031;-76
2022/08/30 02:23:49;;;;;;;2.67;2.00;;;20.90;99.90;;;;;;4988529;28;20515;-75
2022/08/30 02:26:16;;;;;;;0.50;0.50;;;20.90;99.90;;;;;;4988427;28;20548;-76
2022/08/30 02:28:43;;;;;;;0.82;0.65;;;20.80;99.90;;;;;;5001051;28;20049;-76
2022/08/30 02:31:09;;;;;;;2.58;1.77;;;20.90;99.90;;;;;;5007824;28;20526;-76
2022/08/30 02:33:36;;;;;;;3.55;1.33;;;20.80;99.90;;;;;;5006046;28;20041;-75
2022/08/30 02:36:03;;;;;;;0.80;0.77;;;20.80;99.90;;;;;;5002777;28;20039;-75
2022/08/30 02:38:28;;;;;;;;;;;20.70;99.90;;;;;;5007933;28;20044;-76
2022/08/30 02:40:54;;;;;;;0.85;0.85;;;20.60;99.90;;;;;;5007199;28;19922;-76
2022/08/30 02:43:20;;;;;;;1.07;1.03;;;20.60;99.90;;;;;;4998907;28;20040;-76
2022/08/30 02:45:45;;;;;;;1.33;1.20;;;20.60;99.90;;;;;;4986411;28;20464;-76
2022/08/30 02:48:11;;;;;;;1.30;1.20;;;20.60;99.90;;;;;;4987667;28;20496;-76
2022/08/30 02:50:40;;;;;;;0.70;0.70;;;20.50;99.90;;;;;;4988820;28;20091;-76
2022/08/30 02:53:06;;;;;;;1.55;1.10;;;20.50;99.90;;;;;;4990052;28;20127;-76
2022/08/30 02:55:32;;;;;;;0.73;0.73;;;20.40;99.90;;;;;;4988000;28;20166;-76
2022/08/30 02:57:57;;;;;;;0.40;0.40;;;20.40;99.90;;;;;;4989614;28;20036;-76
2022/08/30 03:00:23;;;;;;;1.73;1.50;;;20.40;99.90;;;;;;5007346;28;20038;-76
2022/08/30 03:02:49;;;;;;;1.70;1.60;;;20.30;99.90;;;;;;5007522;28;20427;-76
2022/08/30 03:05:15;;;;;;;1.43;1.33;;;20.30;99.90;;;;;;5003896;28;20483;-76
2022/08/30 03:07:42;;;;;;;4.35;2.85;;;20.20;99.90;;;;;;5005837;28;20022;-76
2022/08/30 03:10:08;;;;;;;0.77;0.77;;;20.20;99.90;;;;;;5007146;28;20034;-76
2022/08/30 03:12:34;;;;;;;1.33;1.15;;;20.20;99.90;;;;;;5005646;28;20040;-76
2022/08/30 03:15:00;;;;;;;2.40;2.00;;;20.10;99.90;;;;;;4988678;28;20393;-76
2022/08/30 03:17:25;;;;;;;1.30;1.20;;;20.00;99.90;;;;;;4985907;28;20032;-75
2022/08/30 03:19:51;;;;;;;22.90;2.87;;;20.10;99.90;;;;;;4986948;28;20031;-76
2022/08/30 03:22:17;;;;;;;4.57;2.70;;;19.90;99.90;;;;;;4988191;28;20078;-76
2022/08/30 03:24:44;;;;;;;1.37;1.27;;;19.90;99.90;;;;;;4985860;28;20072;-76
2022/08/30 03:27:11;;;;;;;1.77;1.67;;;19.80;99.90;;;;;;4985968;28;20026;-76
2022/08/30 03:29:38;;;;;;;;;;;19.80;99.90;;;;;;4997360;28;20318;-76
2022/08/30 03:32:03;;;;;;;1.20;1.00;;;19.80;99.90;;;;;;5005176;28;19936;-75
2022/08/30 03:34:29;;;;;;;4.73;2.33;;;19.80;99.90;;;;;;5006622;28;20030;-76
2022/08/30 03:36:55;;;;;;;1.50;1.40;;;19.80;99.90;;;;;;4967662;28;20268;-76
2022/08/30 03:39:23;;;;;;;1.10;1.00;;;19.70;99.90;;;;;;4966527;28;20027;-76
2022/08/30 03:41:52;;;;;;;1.65;1.55;;;19.70;99.90;;;;;;4987190;28;20580;-76
2022/08/30 03:44:18;;;;;;;2.05;1.85;;;19.70;99.90;;;;;;4987203;28;20031;-76
2022/08/30 03:46:44;;;;;;;0.82;0.82;;;19.60;99.90;;;;;;4987238;28;20037;-76
2022/08/30 03:49:10;;;;;;;0.80;0.80;;;19.50;99.90;;;;;;4986906;28;20022;-76
2022/08/30 03:51:36;;;;;;;1.10;1.10;;;19.50;99.90;;;;;;4987051;28;20039;-76
2022/08/30 03:54:01;;;;;;;3.40;3.10;;;19.50;99.90;;;;;;4985744;28;20022;-75
2022/08/30 03:56:27;;;;;;;1.37;1.27;;;19.50;99.90;;;;;;4986797;28;20042;-75
2022/08/30 03:58:53;;;;;;;2.07;1.80;;;19.40;99.90;;;;;;4985765;28;20427;-76
2022/08/30 04:01:18;;;;;;;2.67;2.30;;;19.40;99.90;;;;;;4983841;28;20027;-76
2022/08/30 04:03:44;;;;;;;2.47;2.27;;;19.40;99.90;;;;;;4985932;28;20030;-76
2022/08/30 04:06:10;;;;;;;1.93;1.73;;;19.20;99.90;;;;;;4966505;28;20345;-76
2022/08/30 04:08:37;;;;;;;1.50;1.43;;;19.30;99.90;;;;;;4967632;28;20054;-76
2022/08/30 04:11:02;;;;;;;3.13;2.13;;;19.40;99.90;;;;;;4967222;28;20035;-76
2022/08/30 04:13:28;;;;;;;2.37;1.33;;;19.30;99.90;;;;;;4980607;28;20093;-76
2022/08/30 04:15:55;;;;;;;3.60;1.50;;;19.30;99.90;;;;;;4990576;28;20035;-77
2022/08/30 04:18:21;;;;;;;2.33;2.13;;;19.30;99.90;;;;;;4985726;28;20478;-77
2022/08/30 04:20:47;;;;;;;1.42;1.33;;;19.20;99.90;;;;;;4969420;28;20039;-77
2022/08/30 04:23:13;;;;;;;0.70;0.70;;;19.30;99.90;;;;;;4971364;28;20478;-76
2022/08/30 04:25:40;;;;;;;10.13;2.17;;;19.30;99.90;;;;;;4970825;28;20089;-76
2022/08/30 04:28:06;;;;;;;0.70;0.70;;;19.40;99.90;;;;;;4971362;28;20395;-76
2022/08/30 04:30:32;;;;;;;;;;;19.30;99.90;;;;;;4969525;28;20075;-76
2022/08/30 04:32:58;;;;;;;4.63;2.90;;;19.30;99.90;;;;;;4970504;28;20406;-76
2022/08/30 04:35:24;;;;;;;3.30;2.63;;;19.30;99.90;;;;;;4973771;28;20512;-75
2022/08/30 04:37:50;;;;;;;1.15;0.98;;;19.20;99.90;;;;;;4970375;28;20074;-76
2022/08/30 04:40:16;;;;;;;4.67;2.53;;;19.30;99.90;;;;;;4968921;28;20062;-76
2022/08/30 04:42:43;;;;;;;0.93;0.93;;;19.30;99.90;;;;;;4976084;28;20033;-76
2022/08/30 04:45:10;;;;;;;;;;;19.20;99.90;;;;;;4990243;28;20303;-76
2022/08/30 04:47:38;;;;;;;4.53;2.55;;;19.40;99.90;;;;;;4990012;28;19909;-76
2022/08/30 04:50:04;;;;;;;7.18;3.08;;;19.50;99.90;;;;;;4973409;28;20073;-76
2022/08/30 04:52:30;;;;;;;1.33;1.23;;;19.50;99.90;;;;;;4970296;28;20022;-76
2022/08/30 04:54:57;;;;;;;1.33;1.23;;;19.60;99.90;;;;;;4970483;28;20149;-76
2022/08/30 04:57:23;;;;;;;;;;;19.60;99.90;;;;;;4973169;28;20145;-76
2022/08/30 04:59:49;;;;;;;1.08;1.05;;;19.70;99.90;;;;;;4989420;28;19917;-76
2022/08/30 05:02:14;;;;;;;0.67;0.67;;;19.80;99.90;;;;;;4989284;28;20026;-76
2022/08/30 05:05:38;;;;;;;0.93;0.93;;;19.80;99.90;;;;;;4987313;28;20099;-76
2022/08/30 05:07:26;;;;;;;1.73;1.60;;;19.90;99.90;;;;;;4987634;28;20111;-76
2022/08/30 05:09:51;;;;;;;0.57;0.57;;;19.90;99.90;;;;;;4988230;28;20030;-77
2022/08/30 05:12:17;;;;;;;2.80;1.13;;;20.00;99.90;;;;;;4988779;28;20041;-76
2022/08/30 05:14:42;;;;;;;0.80;0.80;;;20.00;99.90;;;;;;4987773;28;20394;-75
2022/08/30 05:17:09;;;;;;;1.60;1.50;;;20.00;99.90;;;;;;4989772;28;20031;-76
2022/08/30 05:19:34;;;;;;;0.73;0.73;;;20.00;99.90;;;;;;4987621;28;20307;-77
2022/08/30 05:22:00;;;;;;;0.80;0.80;;;20.10;99.90;;;;;;4993855;28;20030;-76
2022/08/30 05:24:25;;;;;;;5.53;2.23;;;20.20;99.90;;;;;;5005852;28;20033;-76
2022/08/30 05:26:51;;;;;;;1.10;1.10;;;20.20;99.90;;;;;;5009221;28;20032;-76
2022/08/30 05:29:17;;;;;;;26.87;1.70;;;20.30;99.90;;;;;;4995972;28;20113;-76
2022/08/30 05:31:46;;;;;;;1.47;1.33;;;20.30;99.90;;;;;;4988909;28;20049;-75
2022/08/30 05:34:11;;;;;;;0.75;0.75;;;20.30;99.90;;;;;;4989332;28;20019;-77
2022/08/30 05:36:37;;;;;;;0.73;0.73;;;20.40;99.90;;;;;;4990170;28;20030;-76
2022/08/30 05:39:05;;;;;;;1.02;1.02;;;20.50;99.90;;;;;;4987409;28;20058;-76
2022/08/30 05:41:31;;;;;;;0.68;0.68;;;20.50;99.90;;;;;;4988631;28;20043;-76
2022/08/30 05:44:01;;;;;;;0.60;0.60;;;20.50;99.90;;;;;;4997093;28;20036;-76
2022/08/30 05:46:31;;;;;;;0.40;0.40;;;20.60;99.90;;;;;;5008730;28;20041;-76
2022/08/30 05:48:58;;;;;;;1.35;1.25;;;20.60;99.90;;;;;;5008576;28;20105;-76
2022/08/30 05:51:27;;;;;;;0.65;0.65;;;20.60;99.90;;;;;;5007020;28;20032;-76
2022/08/30 05:53:54;;;;;;;1.15;0.98;;;20.70;99.90;;;;;;5008238;28;20111;-77
2022/08/30 05:56:24;;;;;;;1.98;1.60;;;20.80;99.90;;;;;;5008613;28;20121;-76
2022/08/30 05:58:49;;;;;;;1.90;1.80;;;20.80;99.90;;;;;;4999783;28;20413;-76
2022/08/30 06:01:33;;;;;;;0.53;0.53;;;20.80;99.90;;;;;;4988743;28;20037;-76
2022/08/30 06:04:00;;;;;;;0.95;0.95;;;20.90;99.90;;;;;;4987083;28;20139;-76
2022/08/30 06:06:28;;;;;;;0.60;0.60;;;20.90;99.90;;;;;;4988087;28;20183;-77
2022/08/30 06:08:54;;;;;;;1.13;0.68;;;21.10;99.90;;;;;;4998219;28;20034;-77
2022/08/30 06:11:22;;;;;;;1.95;1.77;;;21.10;99.90;;;;;;4993731;28;20038;-77
2022/08/30 06:13:49;;;;;;;0.88;0.80;;;21.10;99.90;;;;;;4986977;28;20033;-77
2022/08/30 06:16:17;;;;;;;0.57;0.57;;;21.20;99.90;;;;;;4988903;28;20043;-76
2022/08/30 06:18:43;;;;;;;0.85;0.85;;;21.20;99.90;;;;;;4987097;28;20478;-76
2022/08/30 06:21:15;;;;;;;0.85;0.85;;;21.20;99.90;;;;;;4988067;28;20412;-77
2022/08/30 06:23:41;;;;;;;2.30;1.15;;;21.30;99.90;;;;;;4988373;28;20038;-77
2022/08/30 06:26:07;;;;;;;1.33;1.23;;;21.50;99.90;;;;;;4987085;28;20034;-76
2022/08/30 06:28:34;;;;;;;0.98;0.98;;;21.60;99.90;;;;;;4989289;28;20121;-76
2022/08/30 06:30:59;;;;;;;0.50;0.50;;;21.70;99.90;;;;;;5006806;28;20081;-77
2022/08/30 06:33:25;;;;;;;0.73;0.73;;;21.80;99.90;;;;;;5007855;28;20489;-77
2022/08/30 06:35:51;;;;;;;0.30;0.30;;;21.90;99.90;;;;;;5005707;28;20116;-77
2022/08/30 06:38:16;;;;;;;0.53;0.53;;;22.10;99.90;;;;;;5005929;28;20431;-77
2022/08/30 06:40:42;;;;;;;1.20;1.10;;;22.10;99.90;;;;;;5007928;28;20050;-77
2022/08/30 06:43:08;;;;;;;0.30;0.30;;;22.10;99.90;;;;;;5006260;28;20025;-75
2022/08/30 06:45:34;;;;;;;0.50;0.50;;;22.10;99.90;;;;;;4992323;28;20049;-75
2022/08/30 06:48:00;;;;;;;0.40;0.40;;;22.10;99.90;;;;;;4987900;28;20109;-67
2022/08/30 06:50:26;;;;;;;2.17;1.27;;;22.20;99.90;;;;;;4988621;28;20134;-68
2022/08/30 06:52:52;;;;;;;0.68;0.68;;;22.30;99.90;;;;;;4987715;28;20098;-69
2022/08/30 06:55:18;;;;;;;0.70;0.70;;;22.40;99.90;;;;;;4987593;28;20038;-69
2022/08/30 06:57:44;;;;;;;0.73;0.73;;;22.50;99.90;;;;;;4987665;28;20119;-69
2022/08/30 07:00:13;;;;;;;0.50;0.50;;;22.60;99.90;;;;;;4997040;28;20049;-69
2022/08/30 07:02:39;;;;;;;0.63;0.63;;;22.80;99.90;;;;;;5006864;28;20037;-68
2022/08/30 07:05:06;;;;;;;0.60;0.60;;;22.80;99.90;;;;;;5006797;28;20034;-69
2022/08/30 07:07:32;;;;;;;1.35;1.25;;;22.90;99.90;;;;;;5005421;28;20385;-68
2022/08/30 07:10:00;;;;;;;1.48;0.90;;;23.00;99.90;;;;;;5005496;28;20409;-69
2022/08/30 07:12:25;;;;;;;2.65;0.77;;;23.00;99.90;;;;;;5006640;28;20106;-68
2022/08/30 07:14:51;;;;;;;0.60;0.60;;;23.00;99.90;;;;;;5001325;28;20482;-68
2022/08/30 07:20:02;;;;;;;0.52;0.52;;;23.00;99.90;;;;;;4987910;28;20037;-69
2022/08/30 07:22:28;;;;;;;0.20;0.20;;;23.10;99.90;;;;;;4988191;28;20034;-71
2022/08/30 07:24:54;;;;;;;0.67;0.67;;;23.20;99.90;;;;;;4984941;28;20053;-70
2022/08/30 07:27:19;;;;;;;0.53;0.53;;;23.30;99.90;;;;;;4987074;28;20018;-69
2022/08/30 07:29:47;;;;;;;0.50;0.50;;;23.40;99.90;;;;;;4973636;28;20135;-68
2022/08/30 07:32:12;;;;;;;0.55;0.55;;;23.50;99.90;;;;;;5002213;28;20030;-70
2022/08/30 07:34:38;;;;;;;0.53;0.53;;;23.60;99.90;;;;;;4973994;28;20035;-68
2022/08/30 07:37:04;;;;;;;0.43;0.43;;;23.70;99.90;;;;;;4978865;28;20038;-69
2022/08/30 07:39:29;;;;;;;0.40;0.40;;;23.70;99.90;;;;;;4982266;28;20031;-68
2022/08/30 07:41:55;;;;;;;0.33;0.33;;;23.70;99.90;;;;;;4977259;28;20042;-69
2022/08/30 07:44:20;;;;;;;0.27;0.27;;;23.80;99.90;;;;;;4987295;28;20484;-69
2022/08/30 07:46:46;;;;;;;0.33;0.33;;;23.80;99.90;;;;;;4981025;28;20030;-68
2022/08/30 07:49:11;;;;;;;0.40;0.40;;;23.80;99.90;;;;;;4991115;28;20026;-70
2022/08/30 07:51:38;;;;;;;0.60;0.60;;;23.80;99.90;;;;;;4989732;28;20034;-69
2022/08/30 07:54:05;;;;;;;0.57;0.57;;;23.90;99.90;;;;;;4990887;28;20434;-69
2022/08/30 07:56:30;;;;;;;0.20;0.20;;;24.00;99.90;;;;;;4990808;28;20057;-69
2022/08/30 07:58:56;;;;;;;0.67;0.67;;;24.10;99.90;;;;;;4976261;28;20870;-68
2022/08/30 08:01:22;;;;;;;0.40;0.40;;;24.20;99.90;;;;;;4971812;28;20431;-68
2022/08/30 08:03:49;;;;;;;1.13;0.98;;;24.40;99.90;;;;;;4978081;28;20031;-68
2022/08/30 08:06:16;;;;;;;;;;;24.50;99.90;;;;;;4976961;28;20159;-68
2022/08/30 08:08:44;;;;;;;0.47;0.47;;;24.70;99.90;;;;;;4990455;28;19910;-68
2022/08/30 08:11:14;;;;;;;0.35;0.35;;;24.80;99.90;;;;;;4992409;28;20030;-67
2022/08/30 08:13:41;;;;;;;4.57;0.57;;;24.90;99.90;;;;;;4987977;28;20057;-68
2022/08/30 08:16:07;;;;;;;0.50;0.50;;;25.00;99.90;;;;;;4978119;28;20026;-70
2022/08/30 08:18:33;;;;;;;0.95;0.77;;;25.00;99.90;;;;;;4981905;28;20030;-68
2022/08/30 08:21:00;;;;;;;0.43;0.43;;;25.00;99.90;;;;;;4980053;28;20038;-68
2022/08/30 08:23:25;;;;;;;0.65;0.65;;;25.10;99.90;;;;;;4982798;28;20284;-69
2022/08/30 08:25:51;;;;;;;0.77;0.77;;;25.20;99.90;;;;;;4987439;28;20125;-68
2022/08/30 08:28:18;;;;;;;0.65;0.65;;;25.40;99.90;;;;;;4989085;28;20026;-69
2022/08/30 08:30:44;;;;;;;0.30;0.30;;;25.40;99.90;;;;;;4985703;28;20137;-68
2022/08/30 08:33:11;;;;;;;0.30;0.30;;;25.50;99.90;;;;;;5001200;28;20065;-69
2022/08/30 08:35:37;;;;;;;0.95;0.70;;;25.60;99.90;;;;;;5000118;28;20113;-68
2022/08/30 08:38:03;;;;;;;0.87;0.57;;;25.60;99.90;;;;;;4979944;28;20118;-70
2022/08/30 08:40:40;;;;;;;0.30;0.30;;;25.70;99.90;;;;;;4987481;28;20131;-69
2022/08/30 08:43:16;;;;;;;0.30;0.30;;;25.70;99.90;;;;;;4989507;28;20038;-68
2022/08/30 08:45:41;;;;;;;0.60;0.60;;;25.90;99.90;;;;;;4991069;28;20029;-68
2022/08/30 08:48:37;;;;;;;0.43;0.43;;;26.20;99.90;;;;;;4991188;28;20381;-68
2022/08/30 08:53:59;;;;;;;0.40;0.40;;;26.40;99.90;;;;;;4971790;28;20365;-68
2022/08/30 08:56:25;;;;;;;0.73;0.73;;;26.50;99.30;;;;;;4990283;28;20042;-68
2022/08/30 08:58:54;;;;;;;0.32;0.32;;;26.60;99.60;;;;;;4990796;28;20474;-69
2022/08/30 09:01:26;;;;;;;0.50;0.50;;;26.80;99.90;;;;;;4970402;28;20248;-68
2022/08/30 09:03:54;;;;;;;1.50;1.40;;;26.80;99.40;;;;;;4971720;28;20415;-68
2022/08/30 09:06:56;;;;;;;0.20;0.20;;;26.80;98.80;;;;;;4979754;28;20611;-67
2022/08/30 09:09:28;;;;;;;0.73;0.73;;;26.90;97.80;;;;;;4977109;28;20031;-68
2022/08/30 09:11:54;;;;;;;0.60;0.60;;;26.80;98.40;;;;;;4979444;28;20084;-68
2022/08/30 09:14:25;;;;;;;0.40;0.40;;;27.10;98.50;;;;;;4990464;28;20022;-68
2022/08/30 09:16:57;;;;;;;0.50;0.50;;;27.20;97.50;;;;;;4988197;28;20049;-68
2022/08/30 09:19:32;;;;;;;0.32;0.32;;;27.00;97.30;;;;;;4978927;28;20046;-68
2022/08/30 09:22:00;;;;;;;0.47;0.47;;;26.90;97.60;;;;;;4985502;28;20076;-68
2022/08/30 09:24:34;;;;;;;1.02;1.00;;;26.70;97.40;;;;;;4979937;28;20042;-70
2022/08/30 09:27:17;;;;;;;0.32;0.32;;;26.80;97.60;;;;;;4990845;28;20071;-69
2022/08/30 09:29:59;;;;;;;0.52;0.52;;;27.00;97.10;;;;;;4978144;28;20039;-68
2022/08/30 09:32:31;;;;;;;0.52;0.52;;;27.10;96.70;;;;;;4990531;28;20080;-69
2022/08/30 09:34:57;;;;;;;0.20;0.20;;;27.10;96.80;;;;;;4990473;28;20042;-70
2022/08/30 09:37:28;;;;;;;0.30;0.30;;;27.10;96.60;;;;;;4990396;28;20034;-70
2022/08/30 09:39:54;;;;;;;0.30;0.30;;;27.10;96.80;;;;;;4988661;28;20058;-68
2022/08/30 09:42:24;;;;;;;0.60;0.60;;;27.00;96.90;;;;;;4992522;28;20074;-68
2022/08/30 09:44:50;;;;;;;0.40;0.40;;;27.10;96.70;;;;;;4991539;28;20088;-68
2022/08/30 09:47:28;;;;;;;0.63;0.52;;;27.20;96.50;;;;;;4988735;28;20066;-69
2022/08/30 09:50:05;;;;;;;0.68;0.68;;;27.10;96.40;;;;;;4988146;28;20117;-69
2022/08/30 09:52:48;;;;;;;0.45;0.45;;;27.10;96.70;;;;;;4987672;28;20115;-68
2022/08/30 09:55:54;;;;;;;0.35;0.35;;;27.10;96.70;;;;;;4988451;28;20061;-69
2022/08/30 09:58:44;;;;;;;1.17;0.95;;;27.10;96.30;;;;;;4986563;28;20447;-69
2022/08/30 10:01:15;;;;;;;0.50;0.50;;;27.10;96.30;;;;;;4977303;28;20038;-68
2022/08/30 10:04:11;;;;;;;0.45;0.45;;;27.10;96.50;;;;;;4988659;28;20034;-68
2022/08/30 10:06:50;;;;;;;0.90;0.88;;;27.20;96.50;;;;;;4987366;28;20122;-69
2022/08/30 10:09:29;;;;;;;0.50;0.50;;;27.30;96.50;;;;;;4989166;28;20058;-68
2022/08/30 10:12:26;;;;;;;0.22;0.22;;;27.50;96.10;;;;;;4988120;28;20514;-69
2022/08/30 10:14:56;;;;;;;0.50;0.50;;;27.70;95.30;;;;;;4986046;28;20114;-69
2022/08/30 10:17:50;;;;;;;0.98;0.95;;;27.80;94.70;;;;;;4987529;28;20034;-69
2022/08/30 10:20:54;;;;;;;0.28;0.28;;;27.70;94.00;;;;;;4988235;28;20038;-68
2022/08/30 10:24:01;;;;;;;1.67;0.85;;;27.80;94.50;;;;;;4989084;28;20448;-69
2022/08/30 10:26:35;;;;;;;0.30;0.30;;;28.10;94.30;;;;;;4988562;28;20046;-69
2022/08/30 10:29:13;;;;;;;0.50;0.50;;;28.40;93.50;;;;;;4987617;28;20123;-69
2022/08/30 10:32:13;;;;;;;0.30;0.30;;;28.50;93.10;;;;;;4987891;28;20500;-68
2022/08/30 10:34:45;;;;;;;0.40;0.40;;;28.80;92.80;;;;;;5004192;28;20037;-68
2022/08/30 10:37:15;;;;;;;0.63;0.60;;;29.10;92.20;;;;;;5005789;28;20030;-69
2022/08/30 10:39:51;;;;;;;0.35;0.35;;;29.10;91.60;;;;;;4968265;28;20470;-70
2022/08/30 10:42:24;;;;;;;0.50;0.50;;;29.20;92.00;;;;;;4966594;28;20103;-69
2022/08/30 10:45:04;;;;;;;12.18;1.05;;;29.30;92.30;;;;;;5004333;28;20419;-68
2022/08/30 10:48:15;;;;;;;0.88;0.88;;;29.40;91.60;;;;;;5007203;28;20018;-68
2022/08/30 10:50:47;;;;;;;0.30;0.30;;;29.30;91.60;;;;;;5069857;28;20051;-69
2022/08/30 10:53:16;;;;;;;0.50;0.50;;;29.40;91.40;;;;;;5084653;28;20055;-69
2022/08/30 10:55:55;;;;;;;1.50;1.02;;;29.80;90.80;;;;;;5039389;28;20530;-69
2022/08/30 10:58:22;;;;;;;0.40;0.40;;;30.10;90.10;;;;;;5006771;28;20040;-69
2022/08/30 11:01:09;;;;;;;1.25;1.08;;;30.50;90.30;;;;;;5006023;28;20042;-68
2022/08/30 11:03:47;;;;;;;0.20;0.20;;;30.70;88.30;;;;;;4991029;28;20036;-69
2022/08/30 11:06:29;;;;;;;0.30;0.30;;;30.40;89.70;;;;;;4987328;28;20750;-69
2022/08/30 11:08:54;;;;;;;6.43;2.38;;;30.30;90.10;;;;;;5005894;28;20105;-69
2022/08/30 11:11:26;;;;;;;0.50;0.50;;;30.10;88.10;;;;;;5005440;28;20125;-70
2022/08/30 11:13:52;;;;;;;0.20;0.20;;;29.90;88.70;;;;;;5004759;28;20026;-70
2022/08/30 11:16:18;;;;;;;0.95;0.93;;;29.80;87.90;;;;;;5005248;28;20098;-68
2022/08/30 11:18:52;;;;;;;0.75;0.75;;;29.80;88.30;;;;;;5006477;28;20393;-69
2022/08/30 11:21:38;;;;;;;0.40;0.40;;;29.70;89.10;;;;;;5002773;28;20329;-70
2022/08/30 11:24:15;;;;;;;1.05;0.93;;;29.70;89.60;;;;;;4986691;28;20050;-69
2022/08/30 11:26:49;;;;;;;0.55;0.55;;;29.80;88.30;;;;;;4986838;28;20513;-70
2022/08/30 11:29:36;;;;;;;1.15;1.08;;;30.00;89.00;;;;;;4986979;28;20031;-68
2022/08/30 11:32:11;;;;;;;0.50;0.50;;;30.10;86.90;;;;;;4991855;28;20018;-69
2022/08/30 11:34:45;;;;;;;0.22;0.22;;;30.30;87.20;;;;;;5006514;28;20116;-68
2022/08/30 11:37:38;;;;;;;0.50;0.50;;;30.50;86.20;;;;;;4997519;28;20030;-68
2022/08/30 11:40:29;;;;;;;0.25;0.25;;;30.40;86.00;;;;;;4986936;28;20073;-68
2022/08/30 11:42:55;;;;;;;0.30;0.30;;;30.30;84.60;;;;;;4995494;28;20403;-68
2022/08/30 11:45:21;;;;;;;0.40;0.40;;;30.00;85.10;;;;;;5006073;28;20045;-66
2022/08/30 11:47:49;;;;;;;0.30;0.30;;;29.60;86.20;;;;;;5005796;28;20480;-68
2022/08/30 11:50:33;;;;;;;0.55;0.50;;;29.50;87.50;;;;;;5005418;28;20071;-70
2022/08/30 11:53:17;;;;;;;0.30;0.30;;;29.40;88.00;;;;;;4965277;28;20049;-68
2022/08/30 11:55:51;;;;;;;0.93;0.90;;;29.40;88.40;;;;;;4966720;28;20065;-68
2022/08/30 11:58:40;;;;;;;0.30;0.30;;;29.40;89.10;;;;;;4966844;28;20066;-69
2022/08/30 12:01:16;;;;;;;0.47;0.47;;;29.40;88.30;;;;;;4970474;28;20114;-69
2022/08/30 12:03:43;;;;;;;0.22;0.22;;;29.40;88.20;;;;;;5003974;28;20022;-69
2022/08/30 12:06:09;;;;;;;;;;;29.30;87.20;;;;;;5002762;28;20575;-68
2022/08/30 12:08:46;;;;;;;1.08;1.02;;;29.30;85.50;;;;;;4986249;28;20028;-69
2022/08/30 12:11:11;;;;;;;0.30;0.30;;;29.10;85.80;;;;;;4986334;28;20090;-69
2022/08/30 12:13:43;;;;;;;0.20;0.20;;;28.80;86.50;;;;;;5003678;28;20084;-70
2022/08/30 12:16:13;;;;;;;0.40;0.40;;;28.60;87.00;;;;;;5002852;28;20034;-69
2022/08/30 12:18:52;;;;;;;0.93;0.82;;;28.40;87.50;;;;;;5005423;28;20018;-70
2022/08/30 12:21:20;;;;;;;0.40;0.40;;;28.50;87.60;;;;;;4995108;28;20039;-70
2022/08/30 12:23:57;;;;;;;0.40;0.40;;;28.40;87.90;;;;;;4986215;28;20054;-70
2022/08/30 12:26:23;;;;;;;0.47;0.47;;;28.40;87.90;;;;;;4986423;28;20045;-69
2022/08/30 12:28:50;;;;;;;0.23;0.23;;;28.30;87.90;;;;;;4986054;28;20018;-70
2022/08/30 12:31:23;;;;;;;0.20;0.20;;;28.20;86.80;;;;;;4991844;28;20890;-68
2022/08/30 12:33:53;;;;;;;0.82;0.80;;;28.00;86.80;;;;;;5007807;28;20480;-68
2022/08/30 12:36:47;;;;;;;0.70;0.63;;;27.90;87.80;;;;;;5000128;28;20027;-68
2022/08/30 12:39:19;;;;;;;0.47;0.47;;;28.00;88.30;;;;;;4988923;28;20030;-67
2022/08/30 12:41:45;;;;;;;0.40;0.40;;;27.90;88.40;;;;;;4989943;28;20054;-70
2022/08/30 12:44:19;;;;;;;1.15;0.77;;;27.80;88.60;;;;;;4990025;28;20456;-69
2022/08/30 12:46:48;;;;;;;0.43;0.43;;;27.80;89.70;;;;;;4989116;28;20457;-65
2022/08/30 12:49:17;;;;;;;1.45;1.35;;;27.90;90.20;;;;;;4989056;28;20126;-69
2022/08/30 12:51:44;;;;;;;0.63;0.63;;;27.90;88.60;;;;;;5005689;28;20042;-70
2022/08/30 12:54:17;;;;;;;0.30;0.30;;;27.90;87.90;;;;;;5008185;28;20064;-69
2022/08/30 12:57:02;;;;;;;0.45;0.43;;;27.80;88.50;;;;;;5008781;28;20516;-70
2022/08/30 12:59:39;;;;;;;0.38;0.38;;;27.80;87.40;;;;;;5008580;28;20480;-70
2022/08/30 13:02:25;;;;;;;0.20;0.20;;;27.70;88.70;;;;;;5000347;28;20030;-68
2022/08/30 13:04:52;;;;;;;0.52;0.52;;;27.60;88.10;;;;;;4992783;28;20145;-68
2022/08/30 13:07:33;;;;;;;0.20;0.20;;;27.60;88.80;;;;;;5008228;28;20079;-69